sensor_id;sensor_type;location;lat;lon;timestamp;P1;durP1;ratioP1;P2;durP2;ratioP2
2099;SDS011;1055;48.854;9.302;2023-07-24T00:01:44;14.37;;;8.27;;
2099;SDS011;1055;48.854;9.302;2023-07-24T00:04:09;13.53;;;7.60;;
2099;SDS011;1055;48.854;9.302;2023-07-24T00:06:35;13.40;;;7.93;;
2099;SDS011;1055;48.854;9.302;2023-07-24T00:09:00;15.27;;;8.17;;
2099;SDS011;1055;48.854;9.302;2023-07-24T00:11:26;13.80;;;8.10;;
2099;SDS011;1055;48.854;9.302;2023-07-24T00:13:52;13.53;;;7.47;;
2099;SDS011;1055;48.854;9.302;2023-07-24T00:16:17;15.83;;;8.30;;
2099;SDS011;1055;48.854;9.302;2023-07-24T00:18:43;14.40;;;7.70;;
2099;SDS011;1055;48.854;9.302;2023-07-24T00:21:09;11.30;;;7.40;;
2099;SDS011;1055;48.854;9.302;2023-07-24T00:23:35;13.63;;;8.00;;
2099;SDS011;1055;48.854;9.302;2023-07-24T00:26:01;12.77;;;7.93;;
2099;SDS011;1055;48.854;9.302;2023-07-24T00:28:27;16.17;;;8.63;;
2099;SDS011;1055;48.854;9.302;2023-07-24T00:30:52;14.50;;;8.60;;
2099;SDS011;1055;48.854;9.302;2023-07-24T00:33:18;13.83;;;8.00;;
2099;SDS011;1055;48.854;9.302;2023-07-24T00:35:43;12.37;;;7.97;;
2099;SDS011;1055;48.854;9.302;2023-07-24T00:38:09;14.57;;;8.60;;
2099;SDS011;1055;48.854;9.302;2023-07-24T00:40:34;13.60;;;7.83;;
2099;SDS011;1055;48.854;9.302;2023-07-24T00:43:00;13.63;;;8.80;;
2099;SDS011;1055;48.854;9.302;2023-07-24T00:45:25;15.20;;;8.90;;
2099;SDS011;1055;48.854;9.302;2023-07-24T00:47:51;13.67;;;9.00;;
2099;SDS011;1055;48.854;9.302;2023-07-24T00:50:17;15.27;;;8.67;;
2099;SDS011;1055;48.854;9.302;2023-07-24T00:52:44;15.13;;;8.80;;
2099;SDS011;1055;48.854;9.302;2023-07-24T00:55:10;13.87;;;7.83;;
2099;SDS011;1055;48.854;9.302;2023-07-24T00:57:37;15.47;;;9.70;;
2099;SDS011;1055;48.854;9.302;2023-07-24T01:00:03;15.93;;;9.13;;
2099;SDS011;1055;48.854;9.302;2023-07-24T01:02:29;13.97;;;8.17;;
2099;SDS011;1055;48.854;9.302;2023-07-24T01:04:55;15.93;;;9.37;;
2099;SDS011;1055;48.854;9.302;2023-07-24T01:07:21;15.43;;;9.70;;
2099;SDS011;1055;48.854;9.302;2023-07-24T01:09:47;15.23;;;9.40;;
2099;SDS011;1055;48.854;9.302;2023-07-24T01:14:53;13.20;;;8.63;;
2099;SDS011;1055;48.854;9.302;2023-07-24T01:17:26;13.50;;;8.77;;
2099;SDS011;1055;48.854;9.302;2023-07-24T01:19:55;14.23;;;8.70;;
2099;SDS011;1055;48.854;9.302;2023-07-24T01:27:42;15.33;;;8.00;;
2099;SDS011;1055;48.854;9.302;2023-07-24T01:30:09;16.33;;;8.63;;
2099;SDS011;1055;48.854;9.302;2023-07-24T01:32:35;16.40;;;8.50;;
2099;SDS011;1055;48.854;9.302;2023-07-24T01:35:01;13.60;;;8.40;;
2099;SDS011;1055;48.854;9.302;2023-07-24T01:37:27;17.97;;;8.90;;
2099;SDS011;1055;48.854;9.302;2023-07-24T01:39:53;13.43;;;8.17;;
2099;SDS011;1055;48.854;9.302;2023-07-24T01:42:21;16.23;;;8.67;;
2099;SDS011;1055;48.854;9.302;2023-07-24T01:44:54;14.60;;;8.30;;
2099;SDS011;1055;48.854;9.302;2023-07-24T01:47:20;12.60;;;7.67;;
2099;SDS011;1055;48.854;9.302;2023-07-24T01:49:46;13.60;;;7.80;;
2099;SDS011;1055;48.854;9.302;2023-07-24T01:52:12;12.43;;;7.40;;
2099;SDS011;1055;48.854;9.302;2023-07-24T01:54:38;13.17;;;7.97;;
2099;SDS011;1055;48.854;9.302;2023-07-24T01:57:04;14.67;;;8.40;;
2099;SDS011;1055;48.854;9.302;2023-07-24T01:59:30;13.53;;;7.90;;
2099;SDS011;1055;48.854;9.302;2023-07-24T02:01:55;14.23;;;7.90;;
2099;SDS011;1055;48.854;9.302;2023-07-24T02:04:21;13.30;;;8.27;;
2099;SDS011;1055;48.854;9.302;2023-07-24T02:06:50;13.77;;;7.70;;
2099;SDS011;1055;48.854;9.302;2023-07-24T02:09:17;13.43;;;7.60;;
2099;SDS011;1055;48.854;9.302;2023-07-24T02:11:43;12.67;;;7.50;;
2099;SDS011;1055;48.854;9.302;2023-07-24T02:14:08;12.90;;;8.27;;
2099;SDS011;1055;48.854;9.302;2023-07-24T02:16:35;11.67;;;7.40;;
2099;SDS011;1055;48.854;9.302;2023-07-24T02:19:00;14.40;;;8.67;;
2099;SDS011;1055;48.854;9.302;2023-07-24T02:21:26;13.57;;;8.27;;
2099;SDS011;1055;48.854;9.302;2023-07-24T02:23:52;14.53;;;7.97;;
2099;SDS011;1055;48.854;9.302;2023-07-24T02:26:17;13.07;;;7.87;;
2099;SDS011;1055;48.854;9.302;2023-07-24T02:28:43;13.33;;;8.13;;
2099;SDS011;1055;48.854;9.302;2023-07-24T02:31:08;14.40;;;8.07;;
2099;SDS011;1055;48.854;9.302;2023-07-24T02:33:34;12.60;;;7.17;;
2099;SDS011;1055;48.854;9.302;2023-07-24T02:36:00;12.40;;;8.50;;
2099;SDS011;1055;48.854;9.302;2023-07-24T02:38:26;12.23;;;7.53;;
2099;SDS011;1055;48.854;9.302;2023-07-24T02:40:52;12.50;;;8.13;;
2099;SDS011;1055;48.854;9.302;2023-07-24T02:43:17;15.40;;;8.37;;
2099;SDS011;1055;48.854;9.302;2023-07-24T02:45:43;12.77;;;7.40;;
2099;SDS011;1055;48.854;9.302;2023-07-24T02:48:08;18.30;;;8.70;;
2099;SDS011;1055;48.854;9.302;2023-07-24T02:50:34;15.13;;;8.30;;
2099;SDS011;1055;48.854;9.302;2023-07-24T02:53:00;13.20;;;7.40;;
2099;SDS011;1055;48.854;9.302;2023-07-24T02:55:26;13.30;;;8.00;;
2099;SDS011;1055;48.854;9.302;2023-07-24T02:57:51;13.80;;;8.13;;
2099;SDS011;1055;48.854;9.302;2023-07-24T03:00:17;13.80;;;7.50;;
2099;SDS011;1055;48.854;9.302;2023-07-24T03:02:42;11.80;;;7.47;;
2099;SDS011;1055;48.854;9.302;2023-07-24T03:05:08;14.10;;;8.70;;
2099;SDS011;1055;48.854;9.302;2023-07-24T03:07:34;12.40;;;7.57;;
2099;SDS011;1055;48.854;9.302;2023-07-24T03:10:00;13.13;;;7.67;;
2099;SDS011;1055;48.854;9.302;2023-07-24T03:12:26;12.63;;;7.47;;
2099;SDS011;1055;48.854;9.302;2023-07-24T03:14:51;12.70;;;7.90;;
2099;SDS011;1055;48.854;9.302;2023-07-24T03:17:17;16.03;;;8.97;;
2099;SDS011;1055;48.854;9.302;2023-07-24T03:19:42;11.60;;;7.40;;
2099;SDS011;1055;48.854;9.302;2023-07-24T03:22:08;12.00;;;7.57;;
2099;SDS011;1055;48.854;9.302;2023-07-24T03:24:34;15.30;;;8.40;;
2099;SDS011;1055;48.854;9.302;2023-07-24T03:27:00;13.30;;;7.60;;
2099;SDS011;1055;48.854;9.302;2023-07-24T03:29:26;13.10;;;7.33;;
2099;SDS011;1055;48.854;9.302;2023-07-24T03:31:52;14.77;;;7.83;;
2099;SDS011;1055;48.854;9.302;2023-07-24T03:34:18;14.37;;;8.30;;
2099;SDS011;1055;48.854;9.302;2023-07-24T03:36:44;14.33;;;8.30;;
2099;SDS011;1055;48.854;9.302;2023-07-24T03:39:10;15.30;;;8.17;;
2099;SDS011;1055;48.854;9.302;2023-07-24T03:41:36;17.63;;;9.60;;
2099;SDS011;1055;48.854;9.302;2023-07-24T03:44:02;14.53;;;8.50;;
2099;SDS011;1055;48.854;9.302;2023-07-24T03:46:28;11.97;;;7.30;;
2099;SDS011;1055;48.854;9.302;2023-07-24T03:48:54;11.50;;;6.97;;
2099;SDS011;1055;48.854;9.302;2023-07-24T03:51:19;13.70;;;8.27;;
2099;SDS011;1055;48.854;9.302;2023-07-24T03:53:45;15.17;;;8.80;;
2099;SDS011;1055;48.854;9.302;2023-07-24T03:56:11;14.00;;;7.73;;
2099;SDS011;1055;48.854;9.302;2023-07-24T03:58:37;14.60;;;8.60;;
2099;SDS011;1055;48.854;9.302;2023-07-24T04:01:04;15.77;;;9.20;;
2099;SDS011;1055;48.854;9.302;2023-07-24T04:03:30;13.73;;;7.90;;
2099;SDS011;1055;48.854;9.302;2023-07-24T04:05:55;13.63;;;8.03;;
2099;SDS011;1055;48.854;9.302;2023-07-24T04:08:21;16.17;;;8.90;;
2099;SDS011;1055;48.854;9.302;2023-07-24T04:10:47;15.77;;;8.50;;
2099;SDS011;1055;48.854;9.302;2023-07-24T04:13:12;13.10;;;8.10;;
2099;SDS011;1055;48.854;9.302;2023-07-24T04:15:38;14.40;;;9.33;;
2099;SDS011;1055;48.854;9.302;2023-07-24T04:18:04;15.80;;;9.07;;
2099;SDS011;1055;48.854;9.302;2023-07-24T04:20:30;14.70;;;8.17;;
2099;SDS011;1055;48.854;9.302;2023-07-24T04:22:56;15.80;;;8.50;;
2099;SDS011;1055;48.854;9.302;2023-07-24T04:25:22;13.73;;;8.47;;
2099;SDS011;1055;48.854;9.302;2023-07-24T04:27:47;13.80;;;8.57;;
2099;SDS011;1055;48.854;9.302;2023-07-24T04:30:13;14.57;;;8.87;;
2099;SDS011;1055;48.854;9.302;2023-07-24T04:32:39;18.53;;;9.87;;
2099;SDS011;1055;48.854;9.302;2023-07-24T04:35:04;13.83;;;8.60;;
2099;SDS011;1055;48.854;9.302;2023-07-24T04:37:30;14.37;;;8.80;;
2099;SDS011;1055;48.854;9.302;2023-07-24T04:39:56;14.10;;;8.50;;
2099;SDS011;1055;48.854;9.302;2023-07-24T04:42:22;14.50;;;8.87;;
2099;SDS011;1055;48.854;9.302;2023-07-24T04:44:47;14.90;;;8.50;;
2099;SDS011;1055;48.854;9.302;2023-07-24T04:47:15;14.87;;;8.20;;
2099;SDS011;1055;48.854;9.302;2023-07-24T04:49:40;14.80;;;8.17;;
2099;SDS011;1055;48.854;9.302;2023-07-24T04:52:06;15.37;;;8.97;;
2099;SDS011;1055;48.854;9.302;2023-07-24T04:54:32;13.87;;;8.70;;
2099;SDS011;1055;48.854;9.302;2023-07-24T04:56:57;13.17;;;8.57;;
2099;SDS011;1055;48.854;9.302;2023-07-24T04:59:23;12.33;;;7.63;;
2099;SDS011;1055;48.854;9.302;2023-07-24T05:01:49;14.03;;;8.10;;
2099;SDS011;1055;48.854;9.302;2023-07-24T05:04:15;13.90;;;8.53;;
2099;SDS011;1055;48.854;9.302;2023-07-24T05:06:40;13.77;;;8.30;;
2099;SDS011;1055;48.854;9.302;2023-07-24T05:09:06;14.43;;;7.50;;
2099;SDS011;1055;48.854;9.302;2023-07-24T05:11:32;14.37;;;8.57;;
2099;SDS011;1055;48.854;9.302;2023-07-24T05:13:57;14.53;;;8.57;;
2099;SDS011;1055;48.854;9.302;2023-07-24T05:16:23;62.63;;;11.80;;
2099;SDS011;1055;48.854;9.302;2023-07-24T05:18:48;24.70;;;9.57;;
2099;SDS011;1055;48.854;9.302;2023-07-24T05:21:14;18.13;;;8.83;;
2099;SDS011;1055;48.854;9.302;2023-07-24T05:23:39;50.73;;;13.03;;
2099;SDS011;1055;48.854;9.302;2023-07-24T05:26:05;15.77;;;8.80;;
2099;SDS011;1055;48.854;9.302;2023-07-24T05:28:31;14.20;;;9.40;;
2099;SDS011;1055;48.854;9.302;2023-07-24T05:31:04;34.97;;;14.70;;
2099;SDS011;1055;48.854;9.302;2023-07-24T05:33:31;15.67;;;9.27;;
2099;SDS011;1055;48.854;9.302;2023-07-24T05:35:57;15.90;;;8.83;;
2099;SDS011;1055;48.854;9.302;2023-07-24T05:38:24;14.30;;;9.07;;
2099;SDS011;1055;48.854;9.302;2023-07-24T05:40:56;17.20;;;8.70;;
2099;SDS011;1055;48.854;9.302;2023-07-24T05:43:22;14.30;;;9.20;;
2099;SDS011;1055;48.854;9.302;2023-07-24T05:45:48;13.00;;;8.33;;
2099;SDS011;1055;48.854;9.302;2023-07-24T05:48:17;14.23;;;8.90;;
2099;SDS011;1055;48.854;9.302;2023-07-24T05:50:43;15.77;;;9.80;;
2099;SDS011;1055;48.854;9.302;2023-07-24T05:53:09;15.23;;;8.40;;
2099;SDS011;1055;48.854;9.302;2023-07-24T05:55:34;13.70;;;9.13;;
2099;SDS011;1055;48.854;9.302;2023-07-24T05:58:00;13.70;;;9.67;;
2099;SDS011;1055;48.854;9.302;2023-07-24T06:00:25;12.43;;;8.13;;
2099;SDS011;1055;48.854;9.302;2023-07-24T06:02:51;16.10;;;9.93;;
2099;SDS011;1055;48.854;9.302;2023-07-24T06:05:17;14.60;;;9.30;;
2099;SDS011;1055;48.854;9.302;2023-07-24T06:07:44;14.70;;;9.17;;
2099;SDS011;1055;48.854;9.302;2023-07-24T06:10:10;14.70;;;9.07;;
2099;SDS011;1055;48.854;9.302;2023-07-24T06:12:36;13.47;;;8.83;;
2099;SDS011;1055;48.854;9.302;2023-07-24T06:15:02;14.30;;;8.00;;
2099;SDS011;1055;48.854;9.302;2023-07-24T06:17:28;14.97;;;8.60;;
2099;SDS011;1055;48.854;9.302;2023-07-24T06:19:53;15.97;;;8.70;;
2099;SDS011;1055;48.854;9.302;2023-07-24T06:22:19;13.27;;;8.07;;
2099;SDS011;1055;48.854;9.302;2023-07-24T06:24:45;13.60;;;9.00;;
2099;SDS011;1055;48.854;9.302;2023-07-24T06:27:10;13.63;;;8.33;;
2099;SDS011;1055;48.854;9.302;2023-07-24T06:29:36;13.67;;;9.00;;
2099;SDS011;1055;48.854;9.302;2023-07-24T06:32:02;14.90;;;8.63;;
2099;SDS011;1055;48.854;9.302;2023-07-24T06:34:28;14.50;;;8.43;;
2099;SDS011;1055;48.854;9.302;2023-07-24T06:36:53;13.57;;;8.47;;
2099;SDS011;1055;48.854;9.302;2023-07-24T06:39:19;15.50;;;9.07;;
2099;SDS011;1055;48.854;9.302;2023-07-24T06:41:45;13.80;;;8.80;;
2099;SDS011;1055;48.854;9.302;2023-07-24T06:44:11;13.80;;;9.70;;
2099;SDS011;1055;48.854;9.302;2023-07-24T06:46:36;12.90;;;8.60;;
2099;SDS011;1055;48.854;9.302;2023-07-24T06:49:02;16.07;;;8.60;;
2099;SDS011;1055;48.854;9.302;2023-07-24T06:51:28;14.67;;;10.00;;
2099;SDS011;1055;48.854;9.302;2023-07-24T06:53:53;12.43;;;8.13;;
2099;SDS011;1055;48.854;9.302;2023-07-24T06:56:19;13.87;;;8.77;;
2099;SDS011;1055;48.854;9.302;2023-07-24T06:58:44;15.50;;;9.23;;
2099;SDS011;1055;48.854;9.302;2023-07-24T07:01:10;14.60;;;9.63;;
2099;SDS011;1055;48.854;9.302;2023-07-24T07:03:36;15.90;;;10.37;;
2099;SDS011;1055;48.854;9.302;2023-07-24T07:06:01;14.20;;;8.70;;
2099;SDS011;1055;48.854;9.302;2023-07-24T07:08:28;13.83;;;9.40;;
2099;SDS011;1055;48.854;9.302;2023-07-24T07:10:58;15.60;;;9.00;;
2099;SDS011;1055;48.854;9.302;2023-07-24T07:13:25;14.13;;;9.27;;
2099;SDS011;1055;48.854;9.302;2023-07-24T07:15:51;15.07;;;8.93;;
2099;SDS011;1055;48.854;9.302;2023-07-24T07:18:16;16.03;;;8.80;;
2099;SDS011;1055;48.854;9.302;2023-07-24T07:20:49;16.87;;;10.17;;
2099;SDS011;1055;48.854;9.302;2023-07-24T07:23:15;16.07;;;9.67;;
2099;SDS011;1055;48.854;9.302;2023-07-24T07:25:41;15.90;;;8.93;;
2099;SDS011;1055;48.854;9.302;2023-07-24T07:28:09;16.20;;;9.00;;
2099;SDS011;1055;48.854;9.302;2023-07-24T07:30:35;17.63;;;11.00;;
2099;SDS011;1055;48.854;9.302;2023-07-24T07:33:01;15.70;;;9.30;;
2099;SDS011;1055;48.854;9.302;2023-07-24T07:35:27;13.70;;;9.13;;
2099;SDS011;1055;48.854;9.302;2023-07-24T07:37:52;15.47;;;9.80;;
2099;SDS011;1055;48.854;9.302;2023-07-24T07:40:18;14.43;;;9.20;;
2099;SDS011;1055;48.854;9.302;2023-07-24T07:42:43;15.27;;;8.87;;
2099;SDS011;1055;48.854;9.302;2023-07-24T07:45:10;16.23;;;9.57;;
2099;SDS011;1055;48.854;9.302;2023-07-24T07:47:36;14.67;;;9.00;;
2099;SDS011;1055;48.854;9.302;2023-07-24T07:50:02;14.03;;;9.53;;
2099;SDS011;1055;48.854;9.302;2023-07-24T07:52:28;14.97;;;9.60;;
2099;SDS011;1055;48.854;9.302;2023-07-24T07:54:53;14.27;;;9.87;;
2099;SDS011;1055;48.854;9.302;2023-07-24T07:57:19;18.40;;;10.60;;
2099;SDS011;1055;48.854;9.302;2023-07-24T07:59:45;13.80;;;8.97;;
2099;SDS011;1055;48.854;9.302;2023-07-24T08:02:10;14.83;;;9.33;;
2099;SDS011;1055;48.854;9.302;2023-07-24T08:04:36;14.20;;;9.67;;
2099;SDS011;1055;48.854;9.302;2023-07-24T08:07:01;14.37;;;8.60;;
2099;SDS011;1055;48.854;9.302;2023-07-24T08:09:27;16.57;;;10.00;;
2099;SDS011;1055;48.854;9.302;2023-07-24T08:11:53;14.70;;;9.70;;
2099;SDS011;1055;48.854;9.302;2023-07-24T08:14:19;16.93;;;9.87;;
2099;SDS011;1055;48.854;9.302;2023-07-24T08:16:44;14.57;;;9.70;;
2099;SDS011;1055;48.854;9.302;2023-07-24T08:19:13;14.97;;;9.60;;
2099;SDS011;1055;48.854;9.302;2023-07-24T08:21:38;16.90;;;9.80;;
2099;SDS011;1055;48.854;9.302;2023-07-24T08:24:05;19.70;;;10.90;;
2099;SDS011;1055;48.854;9.302;2023-07-24T08:26:31;16.87;;;9.60;;
2099;SDS011;1055;48.854;9.302;2023-07-24T08:28:56;18.90;;;10.33;;
2099;SDS011;1055;48.854;9.302;2023-07-24T08:31:22;18.43;;;10.53;;
2099;SDS011;1055;48.854;9.302;2023-07-24T08:33:47;15.20;;;10.10;;
2099;SDS011;1055;48.854;9.302;2023-07-24T08:36:13;16.40;;;10.57;;
2099;SDS011;1055;48.854;9.302;2023-07-24T08:38:39;16.13;;;9.83;;
2099;SDS011;1055;48.854;9.302;2023-07-24T08:41:06;20.20;;;11.07;;
2099;SDS011;1055;48.854;9.302;2023-07-24T08:43:34;15.60;;;10.30;;
2099;SDS011;1055;48.854;9.302;2023-07-24T08:46:01;18.13;;;11.30;;
2099;SDS011;1055;48.854;9.302;2023-07-24T08:48:31;16.40;;;11.30;;
2099;SDS011;1055;48.854;9.302;2023-07-24T08:51:01;18.77;;;12.10;;
2099;SDS011;1055;48.854;9.302;2023-07-24T08:53:28;20.00;;;11.50;;
2099;SDS011;1055;48.854;9.302;2023-07-24T08:55:55;18.93;;;10.93;;
2099;SDS011;1055;48.854;9.302;2023-07-24T08:58:21;19.83;;;11.70;;
2099;SDS011;1055;48.854;9.302;2023-07-24T09:00:47;16.40;;;10.77;;
2099;SDS011;1055;48.854;9.302;2023-07-24T09:03:13;17.60;;;11.00;;
2099;SDS011;1055;48.854;9.302;2023-07-24T09:05:39;20.37;;;11.50;;
2099;SDS011;1055;48.854;9.302;2023-07-24T09:08:04;20.50;;;12.50;;
2099;SDS011;1055;48.854;9.302;2023-07-24T09:10:30;21.33;;;13.00;;
2099;SDS011;1055;48.854;9.302;2023-07-24T09:12:55;17.17;;;11.43;;
2099;SDS011;1055;48.854;9.302;2023-07-24T09:15:21;20.37;;;13.30;;
2099;SDS011;1055;48.854;9.302;2023-07-24T09:17:48;22.57;;;12.27;;
2099;SDS011;1055;48.854;9.302;2023-07-24T09:20:17;17.00;;;13.13;;
2099;SDS011;1055;48.854;9.302;2023-07-24T09:23:03;19.70;;;13.00;;
2099;SDS011;1055;48.854;9.302;2023-07-24T09:25:31;20.57;;;13.27;;
2099;SDS011;1055;48.854;9.302;2023-07-24T09:27:58;19.30;;;11.10;;
2099;SDS011;1055;48.854;9.302;2023-07-24T09:30:23;16.20;;;10.57;;
2099;SDS011;1055;48.854;9.302;2023-07-24T09:32:52;16.90;;;11.10;;
2099;SDS011;1055;48.854;9.302;2023-07-24T09:35:19;13.23;;;9.20;;
2099;SDS011;1055;48.854;9.302;2023-07-24T09:37:46;13.90;;;8.03;;
2099;SDS011;1055;48.854;9.302;2023-07-24T09:40:13;13.63;;;9.77;;
2099;SDS011;1055;48.854;9.302;2023-07-24T09:42:40;12.90;;;8.30;;
2099;SDS011;1055;48.854;9.302;2023-07-24T09:45:06;14.17;;;9.33;;
2099;SDS011;1055;48.854;9.302;2023-07-24T09:47:35;12.13;;;8.73;;
2099;SDS011;1055;48.854;9.302;2023-07-24T09:50:04;13.60;;;8.53;;
2099;SDS011;1055;48.854;9.302;2023-07-24T09:52:30;12.13;;;7.47;;
2099;SDS011;1055;48.854;9.302;2023-07-24T09:55:01;17.67;;;9.00;;
2099;SDS011;1055;48.854;9.302;2023-07-24T09:57:35;12.47;;;7.27;;
2099;SDS011;1055;48.854;9.302;2023-07-24T10:00:01;12.10;;;7.43;;
2099;SDS011;1055;48.854;9.302;2023-07-24T10:02:27;12.10;;;8.60;;
2099;SDS011;1055;48.854;9.302;2023-07-24T10:04:54;12.50;;;8.33;;
2099;SDS011;1055;48.854;9.302;2023-07-24T10:07:20;15.40;;;9.60;;
2099;SDS011;1055;48.854;9.302;2023-07-24T10:09:48;14.23;;;8.63;;
2099;SDS011;1055;48.854;9.302;2023-07-24T10:12:18;16.70;;;9.70;;
2099;SDS011;1055;48.854;9.302;2023-07-24T10:14:45;14.50;;;8.60;;
2099;SDS011;1055;48.854;9.302;2023-07-24T10:17:12;13.03;;;8.13;;
2099;SDS011;1055;48.854;9.302;2023-07-24T10:19:40;12.00;;;7.83;;
2099;SDS011;1055;48.854;9.302;2023-07-24T10:22:16;11.60;;;7.93;;
2099;SDS011;1055;48.854;9.302;2023-07-24T10:24:46;12.60;;;8.40;;
2099;SDS011;1055;48.854;9.302;2023-07-24T10:27:12;13.93;;;8.67;;
2099;SDS011;1055;48.854;9.302;2023-07-24T10:29:38;14.23;;;8.80;;
2099;SDS011;1055;48.854;9.302;2023-07-24T10:32:04;15.73;;;8.23;;
2099;SDS011;1055;48.854;9.302;2023-07-24T10:35:06;11.70;;;7.80;;
2099;SDS011;1055;48.854;9.302;2023-07-24T10:37:34;14.00;;;8.07;;
2099;SDS011;1055;48.854;9.302;2023-07-24T10:40:01;12.77;;;7.90;;
2099;SDS011;1055;48.854;9.302;2023-07-24T10:42:28;13.23;;;7.80;;
2099;SDS011;1055;48.854;9.302;2023-07-24T10:45:07;13.67;;;8.70;;
2099;SDS011;1055;48.854;9.302;2023-07-24T10:47:33;13.93;;;9.60;;
2099;SDS011;1055;48.854;9.302;2023-07-24T10:49:59;11.47;;;8.30;;
2099;SDS011;1055;48.854;9.302;2023-07-24T10:52:28;14.07;;;8.33;;
2099;SDS011;1055;48.854;9.302;2023-07-24T10:55:06;16.30;;;8.80;;
2099;SDS011;1055;48.854;9.302;2023-07-24T10:57:32;13.07;;;8.50;;
2099;SDS011;1055;48.854;9.302;2023-07-24T10:59:58;14.93;;;8.80;;
2099;SDS011;1055;48.854;9.302;2023-07-24T11:02:24;15.20;;;8.93;;
2099;SDS011;1055;48.854;9.302;2023-07-24T11:04:50;13.80;;;9.33;;
2099;SDS011;1055;48.854;9.302;2023-07-24T11:07:16;14.23;;;9.73;;
2099;SDS011;1055;48.854;9.302;2023-07-24T11:09:41;12.90;;;8.43;;
2099;SDS011;1055;48.854;9.302;2023-07-24T11:12:09;14.50;;;9.20;;
2099;SDS011;1055;48.854;9.302;2023-07-24T11:15:13;15.57;;;9.33;;
2099;SDS011;1055;48.854;9.302;2023-07-24T11:17:35;19.10;;;10.17;;
2099;SDS011;1055;48.854;9.302;2023-07-24T11:22:43;15.07;;;9.10;;
2099;SDS011;1055;48.854;9.302;2023-07-24T11:25:09;15.37;;;8.97;;
2099;SDS011;1055;48.854;9.302;2023-07-24T11:27:42;13.10;;;9.00;;
2099;SDS011;1055;48.854;9.302;2023-07-24T11:30:12;13.10;;;8.40;;
2099;SDS011;1055;48.854;9.302;2023-07-24T11:32:43;13.60;;;8.70;;
2099;SDS011;1055;48.854;9.302;2023-07-24T11:35:09;16.47;;;9.50;;
2099;SDS011;1055;48.854;9.302;2023-07-24T11:37:36;14.00;;;9.10;;
2099;SDS011;1055;48.854;9.302;2023-07-24T11:40:03;15.13;;;9.10;;
2099;SDS011;1055;48.854;9.302;2023-07-24T11:42:33;12.60;;;8.17;;
2099;SDS011;1055;48.854;9.302;2023-07-24T11:45:02;12.73;;;7.30;;
2099;SDS011;1055;48.854;9.302;2023-07-24T11:47:28;12.23;;;8.50;;
2099;SDS011;1055;48.854;9.302;2023-07-24T11:49:57;14.20;;;8.90;;
2099;SDS011;1055;48.854;9.302;2023-07-24T11:52:24;15.60;;;8.40;;
2099;SDS011;1055;48.854;9.302;2023-07-24T11:54:56;12.80;;;8.03;;
2099;SDS011;1055;48.854;9.302;2023-07-24T11:57:26;12.67;;;7.87;;
2099;SDS011;1055;48.854;9.302;2023-07-24T11:59:53;12.67;;;7.77;;
2099;SDS011;1055;48.854;9.302;2023-07-24T12:02:19;12.43;;;6.70;;
2099;SDS011;1055;48.854;9.302;2023-07-24T12:04:44;12.80;;;8.67;;
2099;SDS011;1055;48.854;9.302;2023-07-24T12:07:10;14.40;;;8.60;;
2099;SDS011;1055;48.854;9.302;2023-07-24T12:09:36;13.93;;;8.60;;
2099;SDS011;1055;48.854;9.302;2023-07-24T12:12:03;14.27;;;8.30;;
2099;SDS011;1055;48.854;9.302;2023-07-24T12:14:30;14.50;;;8.27;;
2099;SDS011;1055;48.854;9.302;2023-07-24T12:17:02;11.30;;;7.87;;
2099;SDS011;1055;48.854;9.302;2023-07-24T12:19:28;11.00;;;7.30;;
2099;SDS011;1055;48.854;9.302;2023-07-24T12:21:54;13.23;;;7.53;;
2099;SDS011;1055;48.854;9.302;2023-07-24T12:24:20;11.90;;;7.60;;
2099;SDS011;1055;48.854;9.302;2023-07-24T12:26:46;11.47;;;7.00;;
2099;SDS011;1055;48.854;9.302;2023-07-24T12:29:11;10.30;;;6.63;;
2099;SDS011;1055;48.854;9.302;2023-07-24T12:31:37;15.40;;;8.83;;
2099;SDS011;1055;48.854;9.302;2023-07-24T12:34:03;12.87;;;7.70;;
2099;SDS011;1055;48.854;9.302;2023-07-24T12:36:28;13.23;;;8.77;;
2099;SDS011;1055;48.854;9.302;2023-07-24T12:38:55;13.60;;;8.20;;
2099;SDS011;1055;48.854;9.302;2023-07-24T12:41:20;14.37;;;8.40;;
2099;SDS011;1055;48.854;9.302;2023-07-24T12:43:46;12.53;;;9.00;;
2099;SDS011;1055;48.854;9.302;2023-07-24T12:46:11;12.47;;;7.83;;
2099;SDS011;1055;48.854;9.302;2023-07-24T12:48:37;14.50;;;7.47;;
2099;SDS011;1055;48.854;9.302;2023-07-24T12:51:03;16.80;;;9.03;;
2099;SDS011;1055;48.854;9.302;2023-07-24T12:53:28;16.10;;;9.53;;
2099;SDS011;1055;48.854;9.302;2023-07-24T12:55:54;15.80;;;8.67;;
2099;SDS011;1055;48.854;9.302;2023-07-24T12:58:19;14.40;;;7.70;;
2099;SDS011;1055;48.854;9.302;2023-07-24T13:00:45;11.47;;;7.70;;
2099;SDS011;1055;48.854;9.302;2023-07-24T13:03:11;12.63;;;7.70;;
2099;SDS011;1055;48.854;9.302;2023-07-24T13:05:37;11.93;;;7.57;;
2099;SDS011;1055;48.854;9.302;2023-07-24T13:08:03;14.90;;;8.07;;
2099;SDS011;1055;48.854;9.302;2023-07-24T13:10:29;13.10;;;8.40;;
2099;SDS011;1055;48.854;9.302;2023-07-24T13:12:55;12.10;;;7.80;;
2099;SDS011;1055;48.854;9.302;2023-07-24T13:15:20;15.00;;;8.53;;
2099;SDS011;1055;48.854;9.302;2023-07-24T13:17:46;12.60;;;8.20;;
2099;SDS011;1055;48.854;9.302;2023-07-24T13:20:13;11.60;;;7.70;;
2099;SDS011;1055;48.854;9.302;2023-07-24T13:22:40;14.10;;;8.53;;
2099;SDS011;1055;48.854;9.302;2023-07-24T13:25:08;12.57;;;8.33;;
2099;SDS011;1055;48.854;9.302;2023-07-24T13:27:33;12.40;;;7.63;;
2099;SDS011;1055;48.854;9.302;2023-07-24T13:29:59;11.50;;;7.83;;
2099;SDS011;1055;48.854;9.302;2023-07-24T13:32:24;11.13;;;7.30;;
2099;SDS011;1055;48.854;9.302;2023-07-24T13:34:50;12.27;;;7.70;;
2099;SDS011;1055;48.854;9.302;2023-07-24T13:37:16;10.90;;;7.30;;
2099;SDS011;1055;48.854;9.302;2023-07-24T13:39:41;11.97;;;7.50;;
2099;SDS011;1055;48.854;9.302;2023-07-24T13:42:07;14.03;;;8.70;;
2099;SDS011;1055;48.854;9.302;2023-07-24T13:44:33;11.20;;;7.20;;
2099;SDS011;1055;48.854;9.302;2023-07-24T13:46:58;13.00;;;8.00;;
2099;SDS011;1055;48.854;9.302;2023-07-24T13:49:24;11.30;;;6.53;;
2099;SDS011;1055;48.854;9.302;2023-07-24T13:51:50;11.97;;;7.50;;
2099;SDS011;1055;48.854;9.302;2023-07-24T13:54:15;11.00;;;7.00;;
2099;SDS011;1055;48.854;9.302;2023-07-24T13:56:41;12.10;;;7.00;;
2099;SDS011;1055;48.854;9.302;2023-07-24T13:59:06;11.13;;;6.63;;
2099;SDS011;1055;48.854;9.302;2023-07-24T14:01:32;11.30;;;7.07;;
2099;SDS011;1055;48.854;9.302;2023-07-24T14:03:59;10.97;;;6.90;;
2099;SDS011;1055;48.854;9.302;2023-07-24T14:06:27;11.10;;;7.20;;
2099;SDS011;1055;48.854;9.302;2023-07-24T14:08:54;10.97;;;7.30;;
2099;SDS011;1055;48.854;9.302;2023-07-24T14:11:24;11.80;;;6.30;;
2099;SDS011;1055;48.854;9.302;2023-07-24T14:13:52;8.93;;;6.30;;
2099;SDS011;1055;48.854;9.302;2023-07-24T14:16:24;8.93;;;5.77;;
2099;SDS011;1055;48.854;9.302;2023-07-24T14:18:56;11.07;;;6.60;;
2099;SDS011;1055;48.854;9.302;2023-07-24T14:21:23;12.07;;;7.20;;
2099;SDS011;1055;48.854;9.302;2023-07-24T14:23:48;11.47;;;6.83;;
2099;SDS011;1055;48.854;9.302;2023-07-24T14:26:14;11.67;;;6.20;;
2099;SDS011;1055;48.854;9.302;2023-07-24T14:28:41;10.23;;;5.60;;
2099;SDS011;1055;48.854;9.302;2023-07-24T14:31:07;11.00;;;6.23;;
2099;SDS011;1055;48.854;9.302;2023-07-24T14:33:32;9.40;;;5.90;;
2099;SDS011;1055;48.854;9.302;2023-07-24T14:35:58;11.07;;;6.27;;
2099;SDS011;1055;48.854;9.302;2023-07-24T14:38:23;11.93;;;5.50;;
2099;SDS011;1055;48.854;9.302;2023-07-24T14:40:49;9.20;;;5.60;;
2099;SDS011;1055;48.854;9.302;2023-07-24T14:43:15;9.37;;;5.47;;
2099;SDS011;1055;48.854;9.302;2023-07-24T14:45:40;11.07;;;5.80;;
2099;SDS011;1055;48.854;9.302;2023-07-24T14:48:06;10.00;;;5.80;;
2099;SDS011;1055;48.854;9.302;2023-07-24T14:50:34;9.87;;;5.50;;
2099;SDS011;1055;48.854;9.302;2023-07-24T14:52:59;8.77;;;5.97;;
2099;SDS011;1055;48.854;9.302;2023-07-24T14:55:25;8.83;;;5.93;;
2099;SDS011;1055;48.854;9.302;2023-07-24T14:57:51;9.43;;;5.30;;
2099;SDS011;1055;48.854;9.302;2023-07-24T15:00:16;8.50;;;5.53;;
2099;SDS011;1055;48.854;9.302;2023-07-24T15:02:43;8.67;;;5.30;;
2099;SDS011;1055;48.854;9.302;2023-07-24T15:05:08;11.50;;;6.57;;
2099;SDS011;1055;48.854;9.302;2023-07-24T15:07:34;8.90;;;5.20;;